sensor_id;sensor_type;location;lat;lon;timestamp;temperature;humidity
20155;DHT22;10238;49.556;10.956;2024-01-16T00:02:47;-0.50;99.90
20155;DHT22;10238;49.556;10.956;2024-01-16T00:05:35;-0.50;99.90
20155;DHT22;10238;49.556;10.956;2024-01-16T00:08:23;-0.50;99.90
20155;DHT22;10238;49.556;10.956;2024-01-16T00:11:11;-0.50;99.90
20155;DHT22;10238;49.556;10.956;2024-01-16T00:13:58;-0.50;99.90
20155;DHT22;10238;49.556;10.956;2024-01-16T00:16:46;-0.50;99.90
20155;DHT22;10238;49.556;10.956;2024-01-16T00:19:36;-0.50;99.90
20155;DHT22;10238;49.556;10.956;2024-01-16T00:22:24;-0.50;99.90
20155;DHT22;10238;49.556;10.956;2024-01-16T00:25:12;-0.50;99.90
20155;DHT22;10238;49.556;10.956;2024-01-16T00:28:01;-0.50;99.90
20155;DHT22;10238;49.556;10.956;2024-01-16T00:30:49;-0.50;99.90
20155;DHT22;10238;49.556;10.956;2024-01-16T00:33:36;-0.50;99.90
20155;DHT22;10238;49.556;10.956;2024-01-16T00:36:26;-0.50;99.90
20155;DHT22;10238;49.556;10.956;2024-01-16T00:39:13;-0.50;99.90
20155;DHT22;10238;49.556;10.956;2024-01-16T00:42:01;-0.50;99.90
20155;DHT22;10238;49.556;10.956;2024-01-16T00:44:49;-0.60;99.90
20155;DHT22;10238;49.556;10.956;2024-01-16T00:47:37;-0.60;99.90
20155;DHT22;10238;49.556;10.956;2024-01-16T00:50:24;-0.60;99.90
20155;DHT22;10238;49.556;10.956;2024-01-16T00:53:15;-0.60;99.90
20155;DHT22;10238;49.556;10.956;2024-01-16T00:56:03;-0.60;99.90
20155;DHT22;10238;49.556;10.956;2024-01-16T00:58:52;-0.60;99.90
20155;DHT22;10238;49.556;10.956;2024-01-16T01:01:40;-0.60;99.90
20155;DHT22;10238;49.556;10.956;2024-01-16T01:04:27;-0.60;99.90
20155;DHT22;10238;49.556;10.956;2024-01-16T01:07:14;-0.70;99.90
20155;DHT22;10238;49.556;10.956;2024-01-16T01:10:04;-0.70;99.90
20155;DHT22;10238;49.556;10.956;2024-01-16T01:12:53;-0.70;99.90
20155;DHT22;10238;49.556;10.956;2024-01-16T01:15:41;-0.70;99.90
20155;DHT22;10238;49.556;10.956;2024-01-16T01:18:29;-0.70;99.90
20155;DHT22;10238;49.556;10.956;2024-01-16T01:21:16;-0.70;99.90
20155;DHT22;10238;49.556;10.956;2024-01-16T01:24:04;-0.70;99.90
20155;DHT22;10238;49.556;10.956;2024-01-16T01:26:53;-0.70;99.90
20155;DHT22;10238;49.556;10.956;2024-01-16T01:29:41;-0.70;99.90
20155;DHT22;10238;49.556;10.956;2024-01-16T01:32:28;-0.70;99.90
20155;DHT22;10238;49.556;10.956;2024-01-16T01:35:17;-0.80;99.90
20155;DHT22;10238;49.556;10.956;2024-01-16T01:38:06;-0.80;99.90
20155;DHT22;10238;49.556;10.956;2024-01-16T01:40:54;-0.80;99.90
20155;DHT22;10238;49.556;10.956;2024-01-16T01:43:44;-0.80;99.90
20155;DHT22;10238;49.556;10.956;2024-01-16T01:46:33;-0.80;99.90
20155;DHT22;10238;49.556;10.956;2024-01-16T01:49:23;-0.80;99.90
20155;DHT22;10238;49.556;10.956;2024-01-16T01:52:13;-0.70;99.90
20155;DHT22;10238;49.556;10.956;2024-01-16T01:55:02;-0.80;99.90
20155;DHT22;10238;49.556;10.956;2024-01-16T01:57:52;-0.80;99.90
20155;DHT22;10238;49.556;10.956;2024-01-16T02:00:42;-0.80;99.90
20155;DHT22;10238;49.556;10.956;2024-01-16T02:03:34;-0.80;99.90
20155;DHT22;10238;49.556;10.956;2024-01-16T02:06:26;-0.80;99.90
20155;DHT22;10238;49.556;10.956;2024-01-16T02:09:14;-0.80;99.90
20155;DHT22;10238;49.556;10.956;2024-01-16T02:12:02;-0.80;99.90
20155;DHT22;10238;49.556;10.956;2024-01-16T02:14:50;-0.80;99.90
20155;DHT22;10238;49.556;10.956;2024-01-16T02:17:39;-0.80;99.90
20155;DHT22;10238;49.556;10.956;2024-01-16T02:20:26;-0.80;99.90
20155;DHT22;10238;49.556;10.956;2024-01-16T02:23:14;-0.80;99.90
20155;DHT22;10238;49.556;10.956;2024-01-16T02:26:07;-0.80;99.90
20155;DHT22;10238;49.556;10.956;2024-01-16T02:28:55;-0.80;99.90
20155;DHT22;10238;49.556;10.956;2024-01-16T02:31:43;-0.80;99.90
20155;DHT22;10238;49.556;10.956;2024-01-16T02:34:30;-0.80;99.90
20155;DHT22;10238;49.556;10.956;2024-01-16T02:37:18;-0.80;99.90
20155;DHT22;10238;49.556;10.956;2024-01-16T02:40:06;-0.80;99.90
20155;DHT22;10238;49.556;10.956;2024-01-16T02:42:56;-0.80;99.90
20155;DHT22;10238;49.556;10.956;2024-01-16T02:45:44;-0.80;99.90
20155;DHT22;10238;49.556;10.956;2024-01-16T02:48:31;-0.80;99.90
20155;DHT22;10238;49.556;10.956;2024-01-16T02:51:19;-0.80;99.90
20155;DHT22;10238;49.556;10.956;2024-01-16T02:54:07;-0.80;99.90
20155;DHT22;10238;49.556;10.956;2024-01-16T02:56:55;-0.80;99.90
20155;DHT22;10238;49.556;10.956;2024-01-16T02:59:44;-0.80;99.90
20155;DHT22;10238;49.556;10.956;2024-01-16T03:02:33;-0.80;99.90
20155;DHT22;10238;49.556;10.956;2024-01-16T03:05:21;-0.80;99.90
20155;DHT22;10238;49.556;10.956;2024-01-16T03:08:09;-0.90;99.90
20155;DHT22;10238;49.556;10.956;2024-01-16T03:10:56;-0.90;99.90
20155;DHT22;10238;49.556;10.956;2024-01-16T03:13:44;-0.90;99.90
20155;DHT22;10238;49.556;10.956;2024-01-16T03:16:33;-0.90;99.90
20155;DHT22;10238;49.556;10.956;2024-01-16T03:19:21;-0.90;99.90
20155;DHT22;10238;49.556;10.956;2024-01-16T03:22:09;-0.90;99.90
20155;DHT22;10238;49.556;10.956;2024-01-16T03:24:56;-0.90;99.90
20155;DHT22;10238;49.556;10.956;2024-01-16T03:27:43;-0.90;99.90
20155;DHT22;10238;49.556;10.956;2024-01-16T03:30:31;-0.90;99.90
20155;DHT22;10238;49.556;10.956;2024-01-16T03:33:20;-0.80;99.90
20155;DHT22;10238;49.556;10.956;2024-01-16T03:36:08;-0.90;99.90
20155;DHT22;10238;49.556;10.956;2024-01-16T03:38:57;-0.90;99.90
20155;DHT22;10238;49.556;10.956;2024-01-16T03:41:44;-0.90;99.90
20155;DHT22;10238;49.556;10.956;2024-01-16T03:44:32;-0.90;99.90
20155;DHT22;10238;49.556;10.956;2024-01-16T03:47:20;-0.90;99.90
20155;DHT22;10238;49.556;10.956;2024-01-16T03:50:09;-0.90;99.90
20155;DHT22;10238;49.556;10.956;2024-01-16T03:52:57;-0.90;99.90
20155;DHT22;10238;49.556;10.956;2024-01-16T03:55:44;-0.90;99.90
20155;DHT22;10238;49.556;10.956;2024-01-16T03:58:32;-0.90;99.90
20155;DHT22;10238;49.556;10.956;2024-01-16T04:01:29;-0.90;99.90
20155;DHT22;10238;49.556;10.956;2024-01-16T04:04:18;-0.90;99.90
20155;DHT22;10238;49.556;10.956;2024-01-16T04:07:07;-1.00;99.90
20155;DHT22;10238;49.556;10.956;2024-01-16T04:09:55;-1.00;99.90
20155;DHT22;10238;49.556;10.956;2024-01-16T04:12:42;-1.00;99.90
20155;DHT22;10238;49.556;10.956;2024-01-16T04:15:30;-1.10;99.90
20155;DHT22;10238;49.556;10.956;2024-01-16T04:18:18;-1.10;99.90
20155;DHT22;10238;49.556;10.956;2024-01-16T04:21:05;-1.10;99.90
20155;DHT22;10238;49.556;10.956;2024-01-16T04:23:54;-1.10;99.90
20155;DHT22;10238;49.556;10.956;2024-01-16T04:26:42;-1.20;99.90
20155;DHT22;10238;49.556;10.956;2024-01-16T04:29:31;-1.20;99.90
20155;DHT22;10238;49.556;10.956;2024-01-16T04:32:18;-1.20;99.90
20155;DHT22;10238;49.556;10.956;2024-01-16T04:35:07;-1.20;99.90
20155;DHT22;10238;49.556;10.956;2024-01-16T04:37:55;-1.20;99.90
20155;DHT22;10238;49.556;10.956;2024-01-16T04:40:44;-1.20;99.90
20155;DHT22;10238;49.556;10.956;2024-01-16T04:43:31;-1.20;99.90
20155;DHT22;10238;49.556;10.956;2024-01-16T04:46:19;-1.20;99.90
20155;DHT22;10238;49.556;10.956;2024-01-16T04:49:07;-1.20;99.90
20155;DHT22;10238;49.556;10.956;2024-01-16T04:51:55;-1.20;99.90
20155;DHT22;10238;49.556;10.956;2024-01-16T04:54:42;-1.20;99.90
20155;DHT22;10238;49.556;10.956;2024-01-16T04:57:33;-1.20;99.90
20155;DHT22;10238;49.556;10.956;2024-01-16T05:00:21;-1.20;99.90
20155;DHT22;10238;49.556;10.956;2024-01-16T05:03:09;-1.20;99.90
20155;DHT22;10238;49.556;10.956;2024-01-16T05:05:56;-1.20;99.90
20155;DHT22;10238;49.556;10.956;2024-01-16T05:08:44;-1.30;99.90
20155;DHT22;10238;49.556;10.956;2024-01-16T05:11:32;-1.30;99.90
20155;DHT22;10238;49.556;10.956;2024-01-16T05:14:21;-1.30;99.90
20155;DHT22;10238;49.556;10.956;2024-01-16T05:17:11;-1.40;99.90
20155;DHT22;10238;49.556;10.956;2024-01-16T05:19:59;-1.40;99.90
20155;DHT22;10238;49.556;10.956;2024-01-16T05:22:47;-1.40;99.90
20155;DHT22;10238;49.556;10.956;2024-01-16T05:25:34;-1.40;99.90
20155;DHT22;10238;49.556;10.956;2024-01-16T05:28:24;-1.40;99.90
20155;DHT22;10238;49.556;10.956;2024-01-16T05:31:12;-1.40;99.90
20155;DHT22;10238;49.556;10.956;2024-01-16T05:34:00;-1.40;99.90
20155;DHT22;10238;49.556;10.956;2024-01-16T05:36:48;-1.40;99.90
20155;DHT22;10238;49.556;10.956;2024-01-16T05:39:35;-1.40;99.90
20155;DHT22;10238;49.556;10.956;2024-01-16T05:42:23;-1.40;99.90
20155;DHT22;10238;49.556;10.956;2024-01-16T05:45:11;-1.40;99.90
20155;DHT22;10238;49.556;10.956;2024-01-16T05:48:01;-1.40;99.90
20155;DHT22;10238;49.556;10.956;2024-01-16T05:50:49;-1.40;99.90
20155;DHT22;10238;49.556;10.956;2024-01-16T05:53:37;-1.40;99.90
20155;DHT22;10238;49.556;10.956;2024-01-16T05:56:25;-1.40;99.90
20155;DHT22;10238;49.556;10.956;2024-01-16T05:59:13;-1.40;99.90
20155;DHT22;10238;49.556;10.956;2024-01-16T06:02:00;-1.40;99.90
20155;DHT22;10238;49.556;10.956;2024-01-16T06:04:49;-1.40;99.90
20155;DHT22;10238;49.556;10.956;2024-01-16T06:07:37;-1.40;99.90
20155;DHT22;10238;49.556;10.956;2024-01-16T06:10:25;-1.40;99.90
20155;DHT22;10238;49.556;10.956;2024-01-16T06:13:13;-1.40;99.90
20155;DHT22;10238;49.556;10.956;2024-01-16T06:16:01;-1.40;99.90
20155;DHT22;10238;49.556;10.956;2024-01-16T06:18:49;-1.40;99.90
20155;DHT22;10238;49.556;10.956;2024-01-16T06:21:38;-1.40;99.90
20155;DHT22;10238;49.556;10.956;2024-01-16T06:24:26;-1.40;99.90
20155;DHT22;10238;49.556;10.956;2024-01-16T06:27:15;-1.40;99.90
20155;DHT22;10238;49.556;10.956;2024-01-16T06:30:06;-1.40;99.90
20155;DHT22;10238;49.556;10.956;2024-01-16T06:32:54;-1.40;99.90
20155;DHT22;10238;49.556;10.956;2024-01-16T06:35:42;-1.40;99.90
20155;DHT22;10238;49.556;10.956;2024-01-16T06:38:31;-1.40;99.90
20155;DHT22;10238;49.556;10.956;2024-01-16T06:41:19;-1.40;99.90
20155;DHT22;10238;49.556;10.956;2024-01-16T06:44:07;-1.40;99.90
20155;DHT22;10238;49.556;10.956;2024-01-16T06:46:54;-1.40;99.90
20155;DHT22;10238;49.556;10.956;2024-01-16T06:49:42;-1.40;99.90
20155;DHT22;10238;49.556;10.956;2024-01-16T06:52:30;-1.40;99.90
20155;DHT22;10238;49.556;10.956;2024-01-16T06:55:18;-1.40;99.90
20155;DHT22;10238;49.556;10.956;2024-01-16T06:58:06;-1.50;99.90
20155;DHT22;10238;49.556;10.956;2024-01-16T07:00:55;-1.50;99.90
20155;DHT22;10238;49.556;10.956;2024-01-16T07:03:43;-1.50;99.90
20155;DHT22;10238;49.556;10.956;2024-01-16T07:06:31;-1.50;99.90
20155;DHT22;10238;49.556;10.956;2024-01-16T07:09:21;-1.60;99.90
20155;DHT22;10238;49.556;10.956;2024-01-16T07:12:10;-1.60;99.90
20155;DHT22;10238;49.556;10.956;2024-01-16T07:14:58;-1.60;99.90
20155;DHT22;10238;49.556;10.956;2024-01-16T07:17:47;-1.70;99.90
20155;DHT22;10238;49.556;10.956;2024-01-16T07:20:35;-1.80;99.90
20155;DHT22;10238;49.556;10.956;2024-01-16T07:23:22;-1.80;99.90
20155;DHT22;10238;49.556;10.956;2024-01-16T07:26:10;-1.80;99.90
20155;DHT22;10238;49.556;10.956;2024-01-16T07:28:59;-1.90;99.90
20155;DHT22;10238;49.556;10.956;2024-01-16T07:31:47;-1.90;99.90
20155;DHT22;10238;49.556;10.956;2024-01-16T07:34:35;-1.80;99.90
20155;DHT22;10238;49.556;10.956;2024-01-16T07:37:22;-1.80;99.90
20155;DHT22;10238;49.556;10.956;2024-01-16T07:40:10;-1.80;99.90
20155;DHT22;10238;49.556;10.956;2024-01-16T07:42:58;-1.80;99.90
20155;DHT22;10238;49.556;10.956;2024-01-16T07:45:47;-1.70;99.90
20155;DHT22;10238;49.556;10.956;2024-01-16T07:48:34;-1.70;99.90
20155;DHT22;10238;49.556;10.956;2024-01-16T07:51:22;-1.70;99.90
20155;DHT22;10238;49.556;10.956;2024-01-16T07:54:10;-1.70;99.90
20155;DHT22;10238;49.556;10.956;2024-01-16T07:56:59;-1.70;99.90
20155;DHT22;10238;49.556;10.956;2024-01-16T07:59:47;-1.70;99.90
20155;DHT22;10238;49.556;10.956;2024-01-16T08:02:36;-1.70;99.90
20155;DHT22;10238;49.556;10.956;2024-01-16T08:05:24;-1.60;99.90
20155;DHT22;10238;49.556;10.956;2024-01-16T08:08:14;-1.60;99.90
20155;DHT22;10238;49.556;10.956;2024-01-16T08:11:01;-1.60;99.90
20155;DHT22;10238;49.556;10.956;2024-01-16T08:13:49;-1.50;99.90
20155;DHT22;10238;49.556;10.956;2024-01-16T08:16:37;-1.50;99.90
20155;DHT22;10238;49.556;10.956;2024-01-16T08:19:26;-1.50;99.90
20155;DHT22;10238;49.556;10.956;2024-01-16T08:22:13;-1.40;99.90
20155;DHT22;10238;49.556;10.956;2024-01-16T08:25:01;-1.40;99.90
20155;DHT22;10238;49.556;10.956;2024-01-16T08:27:50;-1.30;99.90
20155;DHT22;10238;49.556;10.956;2024-01-16T08:30:38;-1.20;99.90
20155;DHT22;10238;49.556;10.956;2024-01-16T08:33:25;-1.10;99.90
20155;DHT22;10238;49.556;10.956;2024-01-16T08:36:26;-1.10;99.90
20155;DHT22;10238;49.556;10.956;2024-01-16T08:39:14;-1.00;99.90
20155;DHT22;10238;49.556;10.956;2024-01-16T08:42:03;-0.90;99.90
20155;DHT22;10238;49.556;10.956;2024-01-16T08:44:51;-0.90;99.90
20155;DHT22;10238;49.556;10.956;2024-01-16T08:47:38;-0.80;99.90
20155;DHT22;10238;49.556;10.956;2024-01-16T08:50:26;-0.80;99.90
20155;DHT22;10238;49.556;10.956;2024-01-16T08:53:15;-0.80;99.90
20155;DHT22;10238;49.556;10.956;2024-01-16T08:56:03;-0.70;99.90
20155;DHT22;10238;49.556;10.956;2024-01-16T08:58:55;-0.80;99.90
20155;DHT22;10238;49.556;10.956;2024-01-16T09:01:43;-0.80;99.90
20155;DHT22;10238;49.556;10.956;2024-01-16T09:04:30;-0.70;99.90
20155;DHT22;10238;49.556;10.956;2024-01-16T09:07:18;-0.50;99.90
20155;DHT22;10238;49.556;10.956;2024-01-16T09:10:08;-0.40;99.90
20155;DHT22;10238;49.556;10.956;2024-01-16T09:12:56;-0.40;99.90
20155;DHT22;10238;49.556;10.956;2024-01-16T09:15:45;-0.30;99.90
20155;DHT22;10238;49.556;10.956;2024-01-16T09:18:32;-0.20;99.90
20155;DHT22;10238;49.556;10.956;2024-01-16T09:21:20;-0.20;99.90
20155;DHT22;10238;49.556;10.956;2024-01-16T09:24:08;-0.10;99.90
20155;DHT22;10238;49.556;10.956;2024-01-16T09:26:56;0.00;99.90
20155;DHT22;10238;49.556;10.956;2024-01-16T09:29:45;0.20;99.90
20155;DHT22;10238;49.556;10.956;2024-01-16T09:32:32;0.20;99.90
20155;DHT22;10238;49.556;10.956;2024-01-16T09:35:21;0.20;99.90
20155;DHT22;10238;49.556;10.956;2024-01-16T09:38:08;0.10;99.90
20155;DHT22;10238;49.556;10.956;2024-01-16T09:40:56;0.10;99.90
20155;DHT22;10238;49.556;10.956;2024-01-16T09:43:47;0.20;99.90
20155;DHT22;10238;49.556;10.956;2024-01-16T09:46:37;0.40;99.90
20155;DHT22;10238;49.556;10.956;2024-01-16T09:49:26;0.50;99.90
20155;DHT22;10238;49.556;10.956;2024-01-16T09:52:19;0.50;99.90
20155;DHT22;10238;49.556;10.956;2024-01-16T09:55:08;0.40;99.90
20155;DHT22;10238;49.556;10.956;2024-01-16T09:57:55;0.40;99.90
20155;DHT22;10238;49.556;10.956;2024-01-16T10:00:46;0.40;99.90
20155;DHT22;10238;49.556;10.956;2024-01-16T10:03:35;0.60;99.90
20155;DHT22;10238;49.556;10.956;2024-01-16T10:06:23;0.90;99.90
20155;DHT22;10238;49.556;10.956;2024-01-16T10:09:12;1.10;99.90
20155;DHT22;10238;49.556;10.956;2024-01-16T10:12:01;1.40;99.90
20155;DHT22;10238;49.556;10.956;2024-01-16T10:14:49;1.50;99.90
20155;DHT22;10238;49.556;10.956;2024-01-16T10:17:40;1.50;99.90
20155;DHT22;10238;49.556;10.956;2024-01-16T10:20:32;1.70;99.90
20155;DHT22;10238;49.556;10.956;2024-01-16T10:23:23;1.60;99.90
20155;DHT22;10238;49.556;10.956;2024-01-16T10:26:11;1.70;99.90
20155;DHT22;10238;49.556;10.956;2024-01-16T10:33:21;1.90;99.90
20155;DHT22;10238;49.556;10.956;2024-01-16T10:36:11;2.00;99.90
20155;DHT22;10238;49.556;10.956;2024-01-16T10:39:03;2.00;99.90
20155;DHT22;10238;49.556;10.956;2024-01-16T10:41:54;2.10;99.90
20155;DHT22;10238;49.556;10.956;2024-01-16T10:44:53;2.20;99.90
20155;DHT22;10238;49.556;10.956;2024-01-16T10:47:41;2.40;99.90
20155;DHT22;10238;49.556;10.956;2024-01-16T10:50:30;2.40;99.90
20155;DHT22;10238;49.556;10.956;2024-01-16T10:53:20;2.40;99.90
20155;DHT22;10238;49.556;10.956;2024-01-16T10:56:12;2.40;99.90
20155;DHT22;10238;49.556;10.956;2024-01-16T10:59:18;2.40;99.90
20155;DHT22;10238;49.556;10.956;2024-01-16T11:02:15;2.30;99.90
20155;DHT22;10238;49.556;10.956;2024-01-16T11:05:20;2.20;99.90
20155;DHT22;10238;49.556;10.956;2024-01-16T11:12:21;1.90;99.90
20155;DHT22;10238;49.556;10.956;2024-01-16T11:15:12;2.20;99.90
20155;DHT22;10238;49.556;10.956;2024-01-16T11:18:00;2.20;99.90
20155;DHT22;10238;49.556;10.956;2024-01-16T11:20:51;2.20;99.90
20155;DHT22;10238;49.556;10.956;2024-01-16T11:23:53;2.20;99.90
20155;DHT22;10238;49.556;10.956;2024-01-16T11:26:41;2.20;99.90
20155;DHT22;10238;49.556;10.956;2024-01-16T11:29:37;2.20;99.90
20155;DHT22;10238;49.556;10.956;2024-01-16T11:32:33;2.10;99.90
20155;DHT22;10238;49.556;10.956;2024-01-16T11:35:32;2.10;99.90
20155;DHT22;10238;49.556;10.956;2024-01-16T11:38:21;2.10;99.90
20155;DHT22;10238;49.556;10.956;2024-01-16T11:41:47;2.10;99.90
20155;DHT22;10238;49.556;10.956;2024-01-16T11:44:41;2.20;99.90
20155;DHT22;10238;49.556;10.956;2024-01-16T11:47:32;2.30;99.90
20155;DHT22;10238;49.556;10.956;2024-01-16T11:50:27;2.10;99.90
20155;DHT22;10238;49.556;10.956;2024-01-16T11:53:37;2.10;99.90
20155;DHT22;10238;49.556;10.956;2024-01-16T11:56:53;2.20;99.90
20155;DHT22;10238;49.556;10.956;2024-01-16T12:00:02;2.30;99.90
20155;DHT22;10238;49.556;10.956;2024-01-16T12:03:01;2.20;99.90
20155;DHT22;10238;49.556;10.956;2024-01-16T12:05:55;2.40;99.90
20155;DHT22;10238;49.556;10.956;2024-01-16T12:08:42;2.40;99.90
20155;DHT22;10238;49.556;10.956;2024-01-16T12:11:30;2.40;99.90
20155;DHT22;10238;49.556;10.956;2024-01-16T12:14:29;2.30;99.90
20155;DHT22;10238;49.556;10.956;2024-01-16T12:17:18;2.40;99.90
20155;DHT22;10238;49.556;10.956;2024-01-16T12:20:16;2.50;99.90
20155;DHT22;10238;49.556;10.956;2024-01-16T12:23:06;2.80;99.90
20155;DHT22;10238;49.556;10.956;2024-01-16T12:25:55;3.00;99.90
20155;DHT22;10238;49.556;10.956;2024-01-16T12:28:51;3.10;99.90
20155;DHT22;10238;49.556;10.956;2024-01-16T12:31:44;3.10;99.90
20155;DHT22;10238;49.556;10.956;2024-01-16T12:34:34;3.30;99.90
20155;DHT22;10238;49.556;10.956;2024-01-16T12:37:22;3.50;99.90
20155;DHT22;10238;49.556;10.956;2024-01-16T12:40:10;3.60;99.90
20155;DHT22;10238;49.556;10.956;2024-01-16T12:43:50;3.90;99.90
20155;DHT22;10238;49.556;10.956;2024-01-16T12:46:54;3.90;99.90
20155;DHT22;10238;49.556;10.956;2024-01-16T12:49:42;3.80;99.90
20155;DHT22;10238;49.556;10.956;2024-01-16T12:52:30;3.80;99.90
20155;DHT22;10238;49.556;10.956;2024-01-16T12:55:18;3.60;99.90
20155;DHT22;10238;49.556;10.956;2024-01-16T12:58:14;3.50;99.90
20155;DHT22;10238;49.556;10.956;2024-01-16T13:01:25;3.20;99.90
20155;DHT22;10238;49.556;10.956;2024-01-16T13:04:24;3.00;99.90
20155;DHT22;10238;49.556;10.956;2024-01-16T13:07:16;2.90;99.90
20155;DHT22;10238;49.556;10.956;2024-01-16T13:10:08;2.80;99.90
20155;DHT22;10238;49.556;10.956;2024-01-16T13:13:14;2.90;99.90
20155;DHT22;10238;49.556;10.956;2024-01-16T13:16:05;3.10;99.90
20155;DHT22;10238;49.556;10.956;2024-01-16T13:19:01;3.20;99.90
20155;DHT22;10238;49.556;10.956;2024-01-16T13:21:51;3.20;99.90
20155;DHT22;10238;49.556;10.956;2024-01-16T13:24:40;3.10;99.90
20155;DHT22;10238;49.556;10.956;2024-01-16T13:27:36;2.90;99.90
20155;DHT22;10238;49.556;10.956;2024-01-16T13:30:24;2.90;99.90
20155;DHT22;10238;49.556;10.956;2024-01-16T13:33:28;2.80;99.90
20155;DHT22;10238;49.556;10.956;2024-01-16T13:36:19;2.60;99.90
20155;DHT22;10238;49.556;10.956;2024-01-16T13:39:29;2.60;99.90
20155;DHT22;10238;49.556;10.956;2024-01-16T13:42:18;2.70;99.90
20155;DHT22;10238;49.556;10.956;2024-01-16T13:45:07;2.70;99.90
20155;DHT22;10238;49.556;10.956;2024-01-16T13:47:56;2.90;99.90
20155;DHT22;10238;49.556;10.956;2024-01-16T13:50:44;3.00;99.90
20155;DHT22;10238;49.556;10.956;2024-01-16T13:53:33;3.00;99.90
20155;DHT22;10238;49.556;10.956;2024-01-16T13:56:21;3.00;99.90
20155;DHT22;10238;49.556;10.956;2024-01-16T13:59:29;3.10;99.90
20155;DHT22;10238;49.556;10.956;2024-01-16T14:02:17;3.00;99.90
20155;DHT22;10238;49.556;10.956;2024-01-16T14:05:05;3.00;99.90
20155;DHT22;10238;49.556;10.956;2024-01-16T14:07:55;3.10;99.90
20155;DHT22;10238;49.556;10.956;2024-01-16T14:10:44;3.20;99.90
20155;DHT22;10238;49.556;10.956;2024-01-16T14:13:33;3.10;99.90
20155;DHT22;10238;49.556;10.956;2024-01-16T14:16:23;2.90;99.90
20155;DHT22;10238;49.556;10.956;2024-01-16T14:19:31;2.70;99.90
20155;DHT22;10238;49.556;10.956;2024-01-16T14:22:18;2.70;99.90
20155;DHT22;10238;49.556;10.956;2024-01-16T14:25:07;2.70;99.90
20155;DHT22;10238;49.556;10.956;2024-01-16T14:28:03;2.60;99.90
20155;DHT22;10238;49.556;10.956;2024-01-16T14:31:00;2.40;99.90
20155;DHT22;10238;49.556;10.956;2024-01-16T14:33:48;2.40;99.90
20155;DHT22;10238;49.556;10.956;2024-01-16T14:36:36;2.30;99.90
20155;DHT22;10238;49.556;10.956;2024-01-16T14:39:24;2.30;99.90
20155;DHT22;10238;49.556;10.956;2024-01-16T14:42:12;2.20;99.90
20155;DHT22;10238;49.556;10.956;2024-01-16T14:45:02;2.10;99.90
20155;DHT22;10238;49.556;10.956;2024-01-16T14:47:50;2.00;99.90
20155;DHT22;10238;49.556;10.956;2024-01-16T14:50:40;2.00;99.90
20155;DHT22;10238;49.556;10.956;2024-01-16T14:53:27;1.80;99.90
20155;DHT22;10238;49.556;10.956;2024-01-16T14:56:15;1.70;99.90
20155;DHT22;10238;49.556;10.956;2024-01-16T14:59:04;1.70;99.90
20155;DHT22;10238;49.556;10.956;2024-01-16T15:01:53;1.60;99.90
20155;DHT22;10238;49.556;10.956;2024-01-16T15:04:41;1.50;99.90
20155;DHT22;10238;49.556;10.956;2024-01-16T15:07:33;1.50;99.90
20155;DHT22;10238;49.556;10.956;2024-01-16T15:10:23;1.40;99.90
20155;DHT22;10238;49.556;10.956;2024-01-16T15:13:11;1.30;99.90
20155;DHT22;10238;49.556;10.956;2024-01-16T15:15:59;1.20;99.90
20155;DHT22;10238;49.556;10.956;2024-01-16T15:18:48;1.10;99.90
20155;DHT22;10238;49.556;10.956;2024-01-16T15:21:36;1.00;99.90
20155;DHT22;10238;49.556;10.956;2024-01-16T15:24:25;1.00;99.90
20155;DHT22;10238;49.556;10.956;2024-01-16T15:27:14;0.90;99.90
20155;DHT22;10238;49.556;10.956;2024-01-16T15:30:02;0.80;99.90
20155;DHT22;10238;49.556;10.956;2024-01-16T15:32:51;0.70;99.90
20155;DHT22;10238;49.556;10.956;2024-01-16T15:35:41;0.70;99.90
20155;DHT22;10238;49.556;10.956;2024-01-16T15:38:29;0.60;99.90
20155;DHT22;10238;49.556;10.956;2024-01-16T15:41:17;0.60;99.90
20155;DHT22;10238;49.556;10.956;2024-01-16T15:44:05;0.50;99.90
20155;DHT22;10238;49.556;10.956;2024-01-16T15:46:57;0.40;99.90
20155;DHT22;10238;49.556;10.956;2024-01-16T15:49:46;0.40;99.90
20155;DHT22;10238;49.556;10.956;2024-01-16T15:52:35;0.20;99.90
20155;DHT22;10238;49.556;10.956;2024-01-16T15:55:24;0.20;99.90
20155;DHT22;10238;49.556;10.956;2024-01-16T15:58:11;0.10;99.90
20155;DHT22;10238;49.556;10.956;2024-01-16T16:00:59;0.10;99.90
20155;DHT22;10238;49.556;10.956;2024-01-16T16:03:48;0.10;99.90
20155;DHT22;10238;49.556;10.956;2024-01-16T16:06:36;0.00;99.90
20155;DHT22;10238;49.556;10.956;2024-01-16T16:09:26;-0.10;99.90
20155;DHT22;10238;49.556;10.956;2024-01-16T16:12:15;-0.20;99.90
20155;DHT22;10238;49.556;10.956;2024-01-16T16:15:04;-0.30;99.90
20155;DHT22;10238;49.556;10.956;2024-01-16T16:17:52;-0.40;99.90
20155;DHT22;10238;49.556;10.956;2024-01-16T16:20:43;-0.50;99.90
20155;DHT22;10238;49.556;10.956;2024-01-16T16:23:32;-0.50;99.90
20155;DHT22;10238;49.556;10.956;2024-01-16T16:26:29;-0.50;99.90
20155;DHT22;10238;49.556;10.956;2024-01-16T16:29:19;-0.60;99.90
20155;DHT22;10238;49.556;10.956;2024-01-16T16:32:06;-0.60;99.90
20155;DHT22;10238;49.556;10.956;2024-01-16T16:34:54;-0.70;99.90
20155;DHT22;10238;49.556;10.956;2024-01-16T16:37:41;-0.80;99.90
20155;DHT22;10238;49.556;10.956;2024-01-16T16:40:30;-0.90;99.90
20155;DHT22;10238;49.556;10.956;2024-01-16T16:43:20;-1.10;99.90
20155;DHT22;10238;49.556;10.956;2024-01-16T16:46:07;-1.20;99.90
20155;DHT22;10238;49.556;10.956;2024-01-16T16:48:55;-1.20;99.90
20155;DHT22;10238;49.556;10.956;2024-01-16T16:51:43;-1.30;99.90
20155;DHT22;10238;49.556;10.956;2024-01-16T16:54:32;-1.40;99.90
20155;DHT22;10238;49.556;10.956;2024-01-16T16:57:20;-1.50;99.90
20155;DHT22;10238;49.556;10.956;2024-01-16T17:00:11;-1.60;99.90
20155;DHT22;10238;49.556;10.956;2024-01-16T17:03:00;-1.70;99.90
20155;DHT22;10238;49.556;10.956;2024-01-16T17:05:50;-1.80;99.90
20155;DHT22;10238;49.556;10.956;2024-01-16T17:08:39;-1.90;99.90
20155;DHT22;10238;49.556;10.956;2024-01-16T17:11:27;-2.00;99.90
20155;DHT22;10238;49.556;10.956;2024-01-16T17:14:15;-2.00;99.90
20155;DHT22;10238;49.556;10.956;2024-01-16T17:17:04;-2.10;99.90
20155;DHT22;10238;49.556;10.956;2024-01-16T17:19:52;-2.20;99.90
20155;DHT22;10238;49.556;10.956;2024-01-16T17:22:41;-2.30;99.90
20155;DHT22;10238;49.556;10.956;2024-01-16T17:25:28;-2.50;99.90
20155;DHT22;10238;49.556;10.956;2024-01-16T17:28:16;-2.60;99.90
20155;DHT22;10238;49.556;10.956;2024-01-16T17:31:05;-2.70;99.90
20155;DHT22;10238;49.556;10.956;2024-01-16T17:33:55;-2.90;99.90
20155;DHT22;10238;49.556;10.956;2024-01-16T17:36:43;-3.00;99.90
20155;DHT22;10238;49.556;10.956;2024-01-16T17:39:32;-3.10;99.90
20155;DHT22;10238;49.556;10.956;2024-01-16T17:42:20;-3.10;99.90
20155;DHT22;10238;49.556;10.956;2024-01-16T17:45:09;-3.20;99.90
20155;DHT22;10238;49.556;10.956;2024-01-16T17:47:58;-3.20;99.90
20155;DHT22;10238;49.556;10.956;2024-01-16T17:50:48;-3.30;99.90
20155;DHT22;10238;49.556;10.956;2024-01-16T17:53:36;-3.40;99.90